Event-Kalender
Terminkalender Drucken Email help
Jahresansicht Monatsansicht Wochenansicht Heute Suche Zum ausgwählten Monat wechseln
Termine für
Freitag, 4. August 2017



JEvents v1.5.5e   Copyright © 2006-2011

Zufallsbild

Aktuelle Termine

Mo Di Mi Do Fr Sa So
31 1 2 3 4 5 6
7 8 9 10 11 12 13
14 15 16 17 18 19 20
21 22 23 24 25 26 27
28 29 30 31 1 2 3

Pilotenwetter

[source: ADDS]
METAR
EDDH 180450Z VRB01KT 9999 BKN033 M02/M03 Q1027 NOSIG =
TAF
TAF EDDH 172300Z 1800/1906 VRB02KT 9999 SCT030 TEMPO 1802/1808 4000 MIFG PROB30 TEMPO 1802/1808 1200 BCFG BECMG 1806/1808 17007KT TEMPO 1903/1906 4000 MIFG =